sensor_id;sensor_type;location;lat;lon;timestamp;pressure;altitude;pressure_sealevel;temperature;humidity
50590;BME280;36547;50.514;30.840;2023-07-24T00:00:17;100007.27;;;17.40;69.89
50590;BME280;36547;50.514;30.840;2023-07-24T00:01:19;100007.39;;;17.38;69.95
50590;BME280;36547;50.514;30.840;2023-07-24T00:02:22;100008.25;;;17.39;69.97
50590;BME280;36547;50.514;30.840;2023-07-24T00:03:24;100006.78;;;17.35;69.99
50590;BME280;36547;50.514;30.840;2023-07-24T00:05:30;100006.42;;;17.39;70.21
50590;BME280;36547;50.514;30.840;2023-07-24T00:06:32;100004.86;;;17.25;70.31
50590;BME280;36547;50.514;30.840;2023-07-24T00:07:35;100005.72;;;17.26;70.11
50590;BME280;36547;50.514;30.840;2023-07-24T00:08:38;100007.80;;;17.22;70.29
50590;BME280;36547;50.514;30.840;2023-07-24T00:09:40;100006.20;;;17.20;70.34
50590;BME280;36547;50.514;30.840;2023-07-24T00:10:42;100004.50;;;17.19;70.42
50590;BME280;36547;50.514;30.840;2023-07-24T00:11:45;99995.98;;;17.14;70.66
50590;BME280;36547;50.514;30.840;2023-07-24T00:12:47;100001.59;;;17.11;70.65
50590;BME280;36547;50.514;30.840;2023-07-24T00:13:49;99995.98;;;17.14;70.60
50590;BME280;36547;50.514;30.840;2023-07-24T00:14:52;99996.56;;;17.17;70.61
50590;BME280;36547;50.514;30.840;2023-07-24T00:15:57;99992.32;;;17.15;70.66
50590;BME280;36547;50.514;30.840;2023-07-24T00:17:00;99993.02;;;17.17;70.68
50590;BME280;36547;50.514;30.840;2023-07-24T00:18:02;99992.44;;;17.13;70.82
50590;BME280;36547;50.514;30.840;2023-07-24T00:19:05;99996.72;;;17.16;70.72
50590;BME280;36547;50.514;30.840;2023-07-24T00:20:08;100001.08;;;17.17;70.63
50590;BME280;36547;50.514;30.840;2023-07-24T00:21:10;100002.78;;;17.18;70.50
50590;BME280;36547;50.514;30.840;2023-07-24T00:22:13;99990.83;;;17.22;70.42
50590;BME280;36547;50.514;30.840;2023-07-24T00:23:15;99986.19;;;17.24;70.39
50590;BME280;36547;50.514;30.840;2023-07-24T00:24:18;99991.80;;;17.21;70.37
50590;BME280;36547;50.514;30.840;2023-07-24T00:25:20;99983.02;;;17.19;70.36
50590;BME280;36547;50.514;30.840;2023-07-24T00:26:22;99987.89;;;17.25;70.25
50590;BME280;36547;50.514;30.840;2023-07-24T00:27:25;99983.13;;;17.28;70.15
50590;BME280;36547;50.514;30.840;2023-07-24T00:28:27;99990.34;;;17.28;70.10
50590;BME280;36547;50.514;30.840;2023-07-24T00:29:29;99980.44;;;17.28;70.06
50590;BME280;36547;50.514;30.840;2023-07-24T00:30:34;99986.80;;;17.27;70.12
50590;BME280;36547;50.514;30.840;2023-07-24T00:31:36;99974.22;;;17.28;70.13
50590;BME280;36547;50.514;30.840;2023-07-24T00:32:38;99976.91;;;17.28;70.07
50590;BME280;36547;50.514;30.840;2023-07-24T00:33:41;99980.56;;;17.27;70.04
50590;BME280;36547;50.514;30.840;2023-07-24T00:34:43;99983.98;;;17.29;69.97
50590;BME280;36547;50.514;30.840;2023-07-24T00:35:46;99989.08;;;17.32;69.85
50590;BME280;36547;50.514;30.840;2023-07-24T00:36:48;99985.41;;;17.33;69.87
50590;BME280;36547;50.514;30.840;2023-07-24T00:37:51;99974.80;;;17.31;69.82
50590;BME280;36547;50.514;30.840;2023-07-24T00:38:53;99971.28;;;17.31;69.85
50590;BME280;36547;50.514;30.840;2023-07-24T00:39:56;99976.17;;;17.26;69.93
50590;BME280;36547;50.514;30.840;2023-07-24T00:40:59;99976.17;;;17.26;69.95
50590;BME280;36547;50.514;30.840;2023-07-24T00:42:02;99974.47;;;17.25;69.96
50590;BME280;36547;50.514;30.840;2023-07-24T00:43:04;99972.02;;;17.22;70.04
50590;BME280;36547;50.514;30.840;2023-07-24T00:44:07;99975.69;;;17.21;70.12
50590;BME280;36547;50.514;30.840;2023-07-24T00:45:09;99967.42;;;17.13;70.19
50590;BME280;36547;50.514;30.840;2023-07-24T00:46:13;99973.40;;;17.16;70.15
50590;BME280;36547;50.514;30.840;2023-07-24T00:47:16;99972.55;;;17.16;70.16
50590;BME280;36547;50.514;30.840;2023-07-24T00:48:21;99968.27;;;17.13;70.22
50590;BME280;36547;50.514;30.840;2023-07-24T00:49:23;99969.25;;;17.12;70.16
50590;BME280;36547;50.514;30.840;2023-07-24T00:50:27;99967.66;;;17.10;70.15
50590;BME280;36547;50.514;30.840;2023-07-24T00:51:31;99969.25;;;17.12;70.20
50590;BME280;36547;50.514;30.840;2023-07-24T00:52:35;99974.74;;;17.11;70.18
50590;BME280;36547;50.514;30.840;2023-07-24T00:53:37;99968.27;;;17.13;70.23
50590;BME280;36547;50.514;30.840;2023-07-24T00:54:43;99962.29;;;17.10;70.22
50590;BME280;36547;50.514;30.840;2023-07-24T00:55:48;99974.50;;;17.14;70.21
50590;BME280;36547;50.514;30.840;2023-07-24T00:56:50;99969.25;;;17.12;70.17
50590;BME280;36547;50.514;30.840;2023-07-24T00:57:53;99971.08;;;17.12;70.19
50590;BME280;36547;50.514;30.840;2023-07-24T00:58:56;99968.27;;;17.13;70.12
50590;BME280;36547;50.514;30.840;2023-07-24T00:59:59;99970.56;;;17.18;69.97
50590;BME280;36547;50.514;30.840;2023-07-24T01:01:02;99967.17;;;17.16;69.92
50590;BME280;36547;50.514;30.840;2023-07-24T01:02:05;99969.70;;;17.17;69.87
50590;BME280;36547;50.514;30.840;2023-07-24T01:03:07;99965.06;;;17.19;69.76
50590;BME280;36547;50.514;30.840;2023-07-24T01:05:06;99964.70;;;17.24;69.87
50590;BME280;36547;50.514;30.840;2023-07-24T01:06:11;99967.42;;;17.13;69.92
50590;BME280;36547;50.514;30.840;2023-07-24T01:07:13;99961.19;;;17.12;69.81
50590;BME280;36547;50.514;30.840;2023-07-24T01:08:18;99968.76;;;17.07;69.91
50590;BME280;36547;50.514;30.840;2023-07-24T01:09:20;99963.14;;;17.10;69.93
50590;BME280;36547;50.514;30.840;2023-07-24T01:10:23;99964.24;;;17.08;69.97
50590;BME280;36547;50.514;30.840;2023-07-24T01:11:28;99960.83;;;17.06;69.98
50590;BME280;36547;50.514;30.840;2023-07-24T01:12:43;99951.06;;;17.16;70.04
50590;BME280;36547;50.514;30.840;2023-07-24T01:15:24;99963.27;;;17.09;70.27
50590;BME280;36547;50.514;30.840;2023-07-24T01:16:33;99962.34;;;16.87;70.54
50590;BME280;36547;50.514;30.840;2023-07-24T01:17:45;99957.41;;;17.04;70.50
50590;BME280;36547;50.514;30.840;2023-07-24T01:18:48;99962.59;;;16.84;70.74
50590;BME280;36547;50.514;30.840;2023-07-24T01:19:55;99956.24;;;16.85;70.56
50590;BME280;36547;50.514;30.840;2023-07-24T01:21:00;99960.36;;;16.89;70.43
50590;BME280;36547;50.514;30.840;2023-07-24T01:26:14;99959.14;;;16.93;70.28
50590;BME280;36547;50.514;30.840;2023-07-24T01:27:23;99958.78;;;16.98;70.20
50590;BME280;36547;50.514;30.840;2023-07-24T01:28:25;99964.16;;;16.98;70.21
50590;BME280;36547;50.514;30.840;2023-07-24T01:29:28;99960.73;;;16.96;70.21
50590;BME280;36547;50.514;30.840;2023-07-24T01:30:31;99962.56;;;16.95;70.18
50590;BME280;36547;50.514;30.840;2023-07-24T01:31:34;99960.73;;;16.96;70.14
50590;BME280;36547;50.514;30.840;2023-07-24T01:32:37;99959.02;;;16.95;70.24
50590;BME280;36547;50.514;30.840;2023-07-24T01:33:39;99957.92;;;16.98;70.15
50590;BME280;36547;50.514;30.840;2023-07-24T01:34:42;99966.72;;;17.00;70.06
50590;BME280;36547;50.514;30.840;2023-07-24T01:35:45;99962.32;;;16.99;70.07
50590;BME280;36547;50.514;30.840;2023-07-24T01:36:49;99965.00;;;16.99;70.06
50590;BME280;36547;50.514;30.840;2023-07-24T01:37:53;99964.77;;;17.02;70.05
50590;BME280;36547;50.514;30.840;2023-07-24T01:38:56;99968.42;;;17.01;70.02
50590;BME280;36547;50.514;30.840;2023-07-24T01:39:59;99961.34;;;17.00;69.99
50590;BME280;36547;50.514;30.840;2023-07-24T01:41:03;99970.83;;;17.04;69.82
50590;BME280;36547;50.514;30.840;2023-07-24T01:42:06;99968.14;;;17.04;69.83
50590;BME280;36547;50.514;30.840;2023-07-24T01:43:09;99970.98;;;17.02;69.90
50590;BME280;36547;50.514;30.840;2023-07-24T01:44:12;99965.86;;;16.99;69.90
50590;BME280;36547;50.514;30.840;2023-07-24T01:45:15;99968.66;;;16.98;69.99
50590;BME280;36547;50.514;30.840;2023-07-24T01:46:18;99970.62;;;16.95;69.99
50590;BME280;36547;50.514;30.840;2023-07-24T01:47:21;99972.56;;;16.93;69.99
50590;BME280;36547;50.514;30.840;2023-07-24T01:48:23;99963.78;;;16.91;70.17
50590;BME280;36547;50.514;30.840;2023-07-24T01:49:26;99964.52;;;16.93;70.11
50590;BME280;36547;50.514;30.840;2023-07-24T01:50:28;99959.39;;;16.90;70.11
50590;BME280;36547;50.514;30.840;2023-07-24T01:51:31;99965.73;;;16.89;70.20
50590;BME280;36547;50.514;30.840;2023-07-24T01:52:33;99964.02;;;16.88;70.18
50590;BME280;36547;50.514;30.840;2023-07-24T01:53:36;99967.44;;;16.90;70.25
50590;BME280;36547;50.514;30.840;2023-07-24T01:54:39;99970.24;;;16.89;70.20
50590;BME280;36547;50.514;30.840;2023-07-24T01:55:41;99964.02;;;16.88;70.12
50590;BME280;36547;50.514;30.840;2023-07-24T01:56:44;99964.17;;;16.87;70.23
50590;BME280;36547;50.514;30.840;2023-07-24T01:57:46;99969.54;;;16.87;70.19
50590;BME280;36547;50.514;30.840;2023-07-24T01:58:49;99968.69;;;16.86;70.14
50590;BME280;36547;50.514;30.840;2023-07-24T01:59:51;99969.39;;;16.88;70.14
50590;BME280;36547;50.514;30.840;2023-07-24T02:00:55;99972.34;;;16.85;70.25
50590;BME280;36547;50.514;30.840;2023-07-24T02:02:04;99970.50;;;16.97;70.24
50590;BME280;36547;50.514;30.840;2023-07-24T02:03:08;99962.83;;;16.81;70.41
50590;BME280;36547;50.514;30.840;2023-07-24T02:04:12;99964.53;;;16.82;70.36
50590;BME280;36547;50.514;30.840;2023-07-24T02:05:15;99969.66;;;16.85;70.34
50590;BME280;36547;50.514;30.840;2023-07-24T02:06:18;99969.54;;;16.87;70.23
50590;BME280;36547;50.514;30.840;2023-07-24T02:07:20;99975.61;;;16.89;70.22
50590;BME280;36547;50.514;30.840;2023-07-24T02:08:23;99976.47;;;16.89;70.12
50590;BME280;36547;50.514;30.840;2023-07-24T02:09:25;99975.49;;;16.90;70.16
50590;BME280;36547;50.514;30.840;2023-07-24T02:10:28;99974.76;;;16.88;70.19
50590;BME280;36547;50.514;30.840;2023-07-24T02:11:30;99977.44;;;16.88;70.21
50590;BME280;36547;50.514;30.840;2023-07-24T02:12:32;99978.17;;;16.90;70.20
50590;BME280;36547;50.514;30.840;2023-07-24T02:13:35;99982.57;;;16.91;70.13
50590;BME280;36547;50.514;30.840;2023-07-24T02:14:38;99988.91;;;16.90;70.13
50590;BME280;36547;50.514;30.840;2023-07-24T02:15:41;99993.42;;;16.90;70.17
50590;BME280;36547;50.514;30.840;2023-07-24T02:16:43;99987.20;;;16.89;70.14
50590;BME280;36547;50.514;30.840;2023-07-24T02:17:46;99989.19;;;16.87;70.16
50590;BME280;36547;50.514;30.840;2023-07-24T02:18:49;99997.09;;;16.89;70.17
50590;BME280;36547;50.514;30.840;2023-07-24T02:19:52;99991.88;;;16.87;70.19
50590;BME280;36547;50.514;30.840;2023-07-24T02:20:54;99997.09;;;16.89;70.22
50590;BME280;36547;50.514;30.840;2023-07-24T02:21:56;99990.86;;;16.88;70.16
50590;BME280;36547;50.514;30.840;2023-07-24T02:22:59;99994.28;;;16.90;70.15
50590;BME280;36547;50.514;30.840;2023-07-24T02:24:02;99991.59;;;16.90;70.12
50590;BME280;36547;50.514;30.840;2023-07-24T02:25:06;99981.25;;;16.86;70.25
50590;BME280;36547;50.514;30.840;2023-07-24T02:26:09;99986.63;;;16.86;70.23
50590;BME280;36547;50.514;30.840;2023-07-24T02:27:26;99980.40;;;16.85;70.25
50590;BME280;36547;50.514;30.840;2023-07-24T02:28:31;99984.18;;;16.83;70.22
50590;BME280;36547;50.514;30.840;2023-07-24T02:29:33;99987.48;;;16.86;70.12
50590;BME280;36547;50.514;30.840;2023-07-24T02:30:39;99983.08;;;16.85;70.18
50590;BME280;36547;50.514;30.840;2023-07-24T02:31:42;99986.35;;;16.89;70.10
50590;BME280;36547;50.514;30.840;2023-07-24T02:32:45;99981.84;;;16.89;70.22
50590;BME280;36547;50.514;30.840;2023-07-24T02:33:47;99988.67;;;16.93;70.12
50590;BME280;36547;50.514;30.840;2023-07-24T02:34:50;99988.44;;;16.96;70.00
50590;BME280;36547;50.514;30.840;2023-07-24T02:35:54;99985.87;;;16.95;69.94
50590;BME280;36547;50.514;30.840;2023-07-24T02:36:57;99992.09;;;16.95;69.92
50590;BME280;36547;50.514;30.840;2023-07-24T02:37:59;99992.09;;;16.95;69.90
50590;BME280;36547;50.514;30.840;2023-07-24T02:39:02;100001.36;;;16.91;70.07
50590;BME280;36547;50.514;30.840;2023-07-24T02:40:06;99993.55;;;16.88;70.17
50590;BME280;36547;50.514;30.840;2023-07-24T02:41:09;99995.53;;;16.86;70.05
50590;BME280;36547;50.514;30.840;2023-07-24T02:42:11;99990.52;;;16.82;70.27
50590;BME280;36547;50.514;30.840;2023-07-24T02:43:14;100001.88;;;16.85;70.11
50590;BME280;36547;50.514;30.840;2023-07-24T02:44:16;99991.14;;;16.85;70.18
50590;BME280;36547;50.514;30.840;2023-07-24T02:45:18;99992.97;;;16.85;70.19
50590;BME280;36547;50.514;30.840;2023-07-24T02:46:21;99990.28;;;16.85;70.27
50590;BME280;36547;50.514;30.840;2023-07-24T02:47:23;99993.70;;;16.87;70.36
50590;BME280;36547;50.514;30.840;2023-07-24T02:48:26;99995.99;;;16.91;69.96
50590;BME280;36547;50.514;30.840;2023-07-24T02:49:29;99989.65;;;16.92;69.91
50590;BME280;36547;50.514;30.840;2023-07-24T02:50:33;99997.70;;;16.92;69.89
50590;BME280;36547;50.514;30.840;2023-07-24T02:51:35;99994.28;;;16.90;69.91
50590;BME280;36547;50.514;30.840;2023-07-24T02:52:38;99993.55;;;16.88;70.21
50590;BME280;36547;50.514;30.840;2023-07-24T02:53:40;99999.07;;;16.87;70.49
50590;BME280;36547;50.514;30.840;2023-07-24T02:54:43;99994.55;;;16.87;70.40
50590;BME280;36547;50.514;30.840;2023-07-24T02:55:45;99991.59;;;16.90;70.28
50590;BME280;36547;50.514;30.840;2023-07-24T02:56:48;99993.07;;;16.94;70.13
50590;BME280;36547;50.514;30.840;2023-07-24T02:57:50;99986.72;;;16.95;69.97
50590;BME280;36547;50.514;30.840;2023-07-24T02:58:53;99993.19;;;16.93;70.12
50590;BME280;36547;50.514;30.840;2023-07-24T02:59:55;100003.07;;;16.92;70.40
50590;BME280;36547;50.514;30.840;2023-07-24T03:01:05;99997.94;;;16.89;70.57
50590;BME280;36547;50.514;30.840;2023-07-24T03:02:08;100000.05;;;16.86;70.89
50590;BME280;36547;50.514;30.840;2023-07-24T03:03:10;100003.47;;;16.88;70.73
50590;BME280;36547;50.514;30.840;2023-07-24T03:04:13;99998.22;;;16.86;70.71
50590;BME280;36547;50.514;30.840;2023-07-24T03:05:15;99997.94;;;16.89;70.58
50590;BME280;36547;50.514;30.840;2023-07-24T03:06:19;99990.62;;;16.91;70.28
50590;BME280;36547;50.514;30.840;2023-07-24T03:07:23;99997.47;;;16.95;70.16
50590;BME280;36547;50.514;30.840;2023-07-24T03:08:25;99993.92;;;16.95;70.21
50590;BME280;36547;50.514;30.840;2023-07-24T03:09:28;99988.44;;;16.96;70.25
50590;BME280;36547;50.514;30.840;2023-07-24T03:10:30;99992.95;;;16.96;70.31
50590;BME280;36547;50.514;30.840;2023-07-24T03:11:33;99993.07;;;16.94;70.69
50590;BME280;36547;50.514;30.840;2023-07-24T03:12:37;99997.95;;;17.01;70.54
50590;BME280;36547;50.514;30.840;2023-07-24T03:13:40;99998.42;;;17.06;70.13
50590;BME280;36547;50.514;30.840;2023-07-24T03:14:42;99993.91;;;17.06;69.96
50590;BME280;36547;50.514;30.840;2023-07-24T03:15:53;99994.64;;;17.08;69.76
50590;BME280;36547;50.514;30.840;2023-07-24T03:16:56;100000.63;;;17.12;69.43
50590;BME280;36547;50.514;30.840;2023-07-24T03:17:58;100002.33;;;17.13;69.73
50590;BME280;36547;50.514;30.840;2023-07-24T03:19:00;99992.32;;;17.15;69.55
50590;BME280;36547;50.514;30.840;2023-07-24T03:20:13;99995.98;;;17.14;69.49
50590;BME280;36547;50.514;30.840;2023-07-24T03:21:14;99998.39;;;17.17;69.74
50590;BME280;36547;50.514;30.840;2023-07-24T03:22:16;99998.39;;;17.17;69.54
50590;BME280;36547;50.514;30.840;2023-07-24T03:23:18;100001.08;;;17.17;69.30
50590;BME280;36547;50.514;30.840;2023-07-24T03:24:20;99994.73;;;17.18;69.55
50590;BME280;36547;50.514;30.840;2023-07-24T03:25:23;99998.27;;;17.18;69.04
50590;BME280;36547;50.514;30.840;2023-07-24T03:26:27;99993.63;;;17.20;69.10
50590;BME280;36547;50.514;30.840;2023-07-24T03:27:31;99995.46;;;17.20;68.61
50590;BME280;36547;50.514;30.840;2023-07-24T03:28:33;99999.13;;;17.19;68.73
50590;BME280;36547;50.514;30.840;2023-07-24T03:29:35;99991.06;;;17.19;69.06
50590;BME280;36547;50.514;30.840;2023-07-24T03:30:38;99999.13;;;17.19;68.68
50590;BME280;36547;50.514;30.840;2023-07-24T03:31:40;99992.32;;;17.15;68.53
50590;BME280;36547;50.514;30.840;2023-07-24T03:32:43;99994.27;;;17.13;68.80
50590;BME280;36547;50.514;30.840;2023-07-24T03:33:45;99985.23;;;17.14;68.86
50590;BME280;36547;50.514;30.840;2023-07-24T03:34:48;99985.23;;;17.14;68.77
50590;BME280;36547;50.514;30.840;2023-07-24T03:35:51;99987.92;;;17.14;68.77
50590;BME280;36547;50.514;30.840;2023-07-24T03:36:54;99981.58;;;17.15;68.68
50590;BME280;36547;50.514;30.840;2023-07-24T03:37:56;99983.53;;;17.13;68.76
50590;BME280;36547;50.514;30.840;2023-07-24T03:39:01;99994.27;;;17.13;68.91
50590;BME280;36547;50.514;30.840;2023-07-24T03:40:04;99982.55;;;17.14;69.10
50590;BME280;36547;50.514;30.840;2023-07-24T03:41:07;99981.82;;;17.12;68.83
50590;BME280;36547;50.514;30.840;2023-07-24T03:42:12;99985.23;;;17.14;68.89
50590;BME280;36547;50.514;30.840;2023-07-24T03:43:15;99978.03;;;17.14;69.07
50590;BME280;36547;50.514;30.840;2023-07-24T03:44:17;99984.27;;;17.15;68.52
50590;BME280;36547;50.514;30.840;2023-07-24T03:45:19;99983.28;;;17.16;68.34
50590;BME280;36547;50.514;30.840;2023-07-24T03:46:22;99988.78;;;17.14;68.59
50590;BME280;36547;50.514;30.840;2023-07-24T03:47:24;99985.12;;;17.15;68.37
50590;BME280;36547;50.514;30.840;2023-07-24T03:48:27;99983.28;;;17.16;68.74
50590;BME280;36547;50.514;30.840;2023-07-24T03:49:30;99983.28;;;17.16;68.79
50590;BME280;36547;50.514;30.840;2023-07-24T03:50:32;99984.96;;;17.17;68.59
50590;BME280;36547;50.514;30.840;2023-07-24T03:51:35;99985.12;;;17.15;68.44
50590;BME280;36547;50.514;30.840;2023-07-24T03:52:37;99981.30;;;17.18;68.52
50590;BME280;36547;50.514;30.840;2023-07-24T03:53:39;99982.16;;;17.18;69.18
50590;BME280;36547;50.514;30.840;2023-07-24T03:54:42;99979.34;;;17.20;68.92
50590;BME280;36547;50.514;30.840;2023-07-24T03:55:44;99977.52;;;17.20;68.46
50590;BME280;36547;50.514;30.840;2023-07-24T03:56:47;99975.69;;;17.21;68.35
50590;BME280;36547;50.514;30.840;2023-07-24T03:57:49;99976.54;;;17.21;67.71
50590;BME280;36547;50.514;30.840;2023-07-24T03:58:52;99979.11;;;17.23;68.16
50590;BME280;36547;50.514;30.840;2023-07-24T03:59:54;99978.13;;;17.24;68.29
50590;BME280;36547;50.514;30.840;2023-07-24T04:00:57;99981.67;;;17.24;67.95
50590;BME280;36547;50.514;30.840;2023-07-24T04:01:59;99977.15;;;17.25;68.56
50590;BME280;36547;50.514;30.840;2023-07-24T04:03:02;99978.86;;;17.26;68.41
50590;BME280;36547;50.514;30.840;2023-07-24T04:04:04;99975.19;;;17.27;68.74
50590;BME280;36547;50.514;30.840;2023-07-24T04:05:07;99976.05;;;17.27;68.66
50590;BME280;36547;50.514;30.840;2023-07-24T04:06:10;99982.28;;;17.28;68.14
50590;BME280;36547;50.514;30.840;2023-07-24T04:07:12;99973.23;;;17.29;68.34
50590;BME280;36547;50.514;30.840;2023-07-24T04:08:15;99967.14;;;17.27;68.47
50590;BME280;36547;50.514;30.840;2023-07-24T04:09:17;99968.72;;;17.29;68.49
50590;BME280;36547;50.514;30.840;2023-07-24T04:10:20;99967.87;;;17.29;68.40
50590;BME280;36547;50.514;30.840;2023-07-24T04:11:22;99968.84;;;17.28;68.11
50590;BME280;36547;50.514;30.840;2023-07-24T04:12:24;99965.19;;;17.29;68.08
50590;BME280;36547;50.514;30.840;2023-07-24T04:13:27;99971.28;;;17.31;68.44
50590;BME280;36547;50.514;30.840;2023-07-24T04:14:29;99958.83;;;17.30;68.37
50590;BME280;36547;50.514;30.840;2023-07-24T04:15:32;99958.83;;;17.30;68.18
50590;BME280;36547;50.514;30.840;2023-07-24T04:16:35;99958.83;;;17.30;68.68
50590;BME280;36547;50.514;30.840;2023-07-24T04:17:38;99956.84;;;17.32;68.86
50590;BME280;36547;50.514;30.840;2023-07-24T04:18:41;99961.23;;;17.33;68.69
50590;BME280;36547;50.514;30.840;2023-07-24T04:19:43;99961.97;;;17.35;68.44
50590;BME280;36547;50.514;30.840;2023-07-24T04:20:45;99953.78;;;17.37;68.73
50590;BME280;36547;50.514;30.840;2023-07-24T04:21:47;99952.80;;;17.38;68.41
50590;BME280;36547;50.514;30.840;2023-07-24T04:22:50;99960.74;;;17.39;68.33
50590;BME280;36547;50.514;30.840;2023-07-24T04:23:53;99954.39;;;17.40;68.48
50590;BME280;36547;50.514;30.840;2023-07-24T04:24:56;99954.14;;;17.43;68.02
50590;BME280;36547;50.514;30.840;2023-07-24T04:25:58;99961.23;;;17.44;68.03
50590;BME280;36547;50.514;30.840;2023-07-24T04:27:00;99953.86;;;17.46;68.24
50590;BME280;36547;50.514;30.840;2023-07-24T04:28:03;99966.07;;;17.50;67.84
50590;BME280;36547;50.514;30.840;2023-07-24T04:29:06;99958.86;;;17.51;68.01
50590;BME280;36547;50.514;30.840;2023-07-24T04:30:10;99951.41;;;17.54;68.18
50590;BME280;36547;50.514;30.840;2023-07-24T04:31:12;99954.82;;;17.56;68.35
50590;BME280;36547;50.514;30.840;2023-07-24T04:32:15;99955.55;;;17.58;68.46
50590;BME280;36547;50.514;30.840;2023-07-24T04:33:18;99949.20;;;17.59;68.25
50590;BME280;36547;50.514;30.840;2023-07-24T04:34:20;99950.66;;;17.63;67.91
50590;BME280;36547;50.514;30.840;2023-07-24T04:35:22;99958.47;;;17.66;67.87
50590;BME280;36547;50.514;30.840;2023-07-24T04:36:25;99953.81;;;17.69;67.22
50590;BME280;36547;50.514;30.840;2023-07-24T04:37:27;99955.27;;;17.73;67.68
50590;BME280;36547;50.514;30.840;2023-07-24T04:38:29;99955.97;;;17.75;67.11
50590;BME280;36547;50.514;30.840;2023-07-24T04:39:32;99951.31;;;17.77;67.63
50590;BME280;36547;50.514;30.840;2023-07-24T04:40:34;99951.06;;;17.80;67.33
50590;BME280;36547;50.514;30.840;2023-07-24T04:41:36;99948.98;;;17.83;67.50
50590;BME280;36547;50.514;30.840;2023-07-24T04:42:38;99953.25;;;17.86;67.70
50590;BME280;36547;50.514;30.840;2023-07-24T04:43:40;99949.45;;;17.88;67.74
50590;BME280;36547;50.514;30.840;2023-07-24T04:44:43;99957.10;;;17.93;67.35
50590;BME280;36547;50.514;30.840;2023-07-24T04:45:45;99951.47;;;17.96;66.72
50590;BME280;36547;50.514;30.840;2023-07-24T04:46:48;99949.25;;;18.01;67.06
50590;BME280;36547;50.514;30.840;2023-07-24T04:47:51;99960.57;;;18.05;67.50
50590;BME280;36547;50.514;30.840;2023-07-24T04:48:54;99953.23;;;18.07;67.27
50590;BME280;36547;50.514;30.840;2023-07-24T04:49:56;99947.59;;;18.10;67.50
50590;BME280;36547;50.514;30.840;2023-07-24T04:50:58;99948.31;;;18.12;67.16
50590;BME280;36547;50.514;30.840;2023-07-24T04:52:01;99947.20;;;18.14;67.70
50590;BME280;36547;50.514;30.840;2023-07-24T04:53:04;99951.31;;;18.18;67.25
50590;BME280;36547;50.514;30.840;2023-07-24T04:54:06;99942.26;;;18.19;67.61
50590;BME280;36547;50.514;30.840;2023-07-24T04:55:08;99950.80;;;18.24;67.61
50590;BME280;36547;50.514;30.840;2023-07-24T04:56:11;99954.20;;;18.26;67.37
50590;BME280;36547;50.514;30.840;2023-07-24T04:57:13;99946.86;;;18.28;67.22
50590;BME280;36547;50.514;30.840;2023-07-24T04:58:16;99949.29;;;18.31;67.54
50590;BME280;36547;50.514;30.840;2023-07-24T04:59:18;99949.00;;;18.34;67.33
50590;BME280;36547;50.514;30.840;2023-07-24T05:00:21;99951.42;;;18.37;67.51
50590;BME280;36547;50.514;30.840;2023-07-24T05:01:23;99947.75;;;18.38;67.56
50590;BME280;36547;50.514;30.840;2023-07-24T05:02:25;99952.88;;;18.42;67.92
50590;BME280;36547;50.514;30.840;2023-07-24T05:03:27;99958.00;;;18.45;67.77
50590;BME280;36547;50.514;30.840;2023-07-24T05:04:29;99945.23;;;18.47;67.41
50590;BME280;36547;50.514;30.840;2023-07-24T05:05:32;99943.26;;;18.49;67.62
50590;BME280;36547;50.514;30.840;2023-07-24T05:06:35;99947.52;;;18.51;66.86
50590;BME280;36547;50.514;30.840;2023-07-24T05:07:37;99953.50;;;18.55;66.99
50590;BME280;36547;50.514;30.840;2023-07-24T05:08:39;99942.47;;;18.58;66.74
50590;BME280;36547;50.514;30.840;2023-07-24T05:09:42;99948.61;;;18.60;66.59
50590;BME280;36547;50.514;30.840;2023-07-24T05:10:45;99947.33;;;18.64;66.64
50590;BME280;36547;50.514;30.840;2023-07-24T05:11:48;99946.20;;;18.66;66.52
50590;BME280;36547;50.514;30.840;2023-07-24T05:12:50;99944.10;;;18.70;66.47
50590;BME280;36547;50.514;30.840;2023-07-24T05:13:53;99946.53;;;18.73;66.13
50590;BME280;36547;50.514;30.840;2023-07-24T05:14:55;99938.32;;;18.75;66.01
50590;BME280;36547;50.514;30.840;2023-07-24T05:15:58;99942.28;;;18.80;66.52
50590;BME280;36547;50.514;30.840;2023-07-24T05:17:00;99937.62;;;18.82;66.25
50590;BME280;36547;50.514;30.840;2023-07-24T05:18:03;99940.05;;;18.85;65.74
50590;BME280;36547;50.514;30.840;2023-07-24T05:19:05;99931.70;;;18.88;65.78
50590;BME280;36547;50.514;30.840;2023-07-24T05:20:08;99937.50;;;18.93;66.66
50590;BME280;36547;50.514;30.840;2023-07-24T05:21:12;99931.84;;;18.96;66.60
50590;BME280;36547;50.514;30.840;2023-07-24T05:22:14;99937.69;;;19.01;67.29
50590;BME280;36547;50.514;30.840;2023-07-24T05:23:17;99931.99;;;19.04;66.85
50590;BME280;36547;50.514;30.840;2023-07-24T05:24:20;99929.03;;;19.07;66.27
50590;BME280;36547;50.514;30.840;2023-07-24T05:25:23;99927.05;;;19.10;65.66
50590;BME280;36547;50.514;30.840;2023-07-24T05:26:26;99937.55;;;19.13;65.86
50590;BME280;36547;50.514;30.840;2023-07-24T05:27:30;99935.44;;;19.16;65.30
50590;BME280;36547;50.514;30.840;2023-07-24T05:28:33;99935.30;;;19.18;64.73
50590;BME280;36547;50.514;30.840;2023-07-24T05:29:35;99935.00;;;19.21;64.83
50590;BME280;36547;50.514;30.840;2023-07-24T05:30:38;99937.42;;;19.24;64.75
50590;BME280;36547;50.514;30.840;2023-07-24T05:31:40;99937.16;;;19.27;64.37
50590;BME280;36547;50.514;30.840;2023-07-24T05:32:43;99928.80;;;19.30;64.28
50590;BME280;36547;50.514;30.840;2023-07-24T05:33:46;99929.34;;;19.33;64.56
50590;BME280;36547;50.514;30.840;2023-07-24T05:34:48;99939.84;;;19.36;64.32
50590;BME280;36547;50.514;30.840;2023-07-24T05:35:51;99928.79;;;19.39;64.36
50590;BME280;36547;50.514;30.840;2023-07-24T05:36:54;99933.05;;;19.42;64.20